sensor_id;sensor_type;location;lat;lon;timestamp;pressure;altitude;pressure_sealevel;temperature;humidity
63500;BME280;49654;51.142;14.924;2023-02-23T00:00:24;98937.25;;;4.94;83.38
63500;BME280;49654;51.142;14.924;2023-02-23T00:02:54;98989.28;;;5.15;83.80
63500;BME280;49654;51.142;14.924;2023-02-23T00:05:23;98968.34;;;5.00;83.61
63500;BME280;49654;51.142;14.924;2023-02-23T00:07:50;98994.03;;;5.10;84.11
63500;BME280;49654;51.142;14.924;2023-02-23T00:10:19;98982.97;;;5.00;84.03
63500;BME280;49654;51.142;14.924;2023-02-23T00:12:47;98948.94;;;4.78;84.21
63500;BME280;49654;51.142;14.924;2023-02-23T00:15:15;98988.13;;;5.00;84.40
63500;BME280;49654;51.142;14.924;2023-02-23T00:17:42;98977.81;;;5.00;84.31
63500;BME280;49654;51.142;14.924;2023-02-23T00:20:12;98986.75;;;5.06;84.52
63500;BME280;49654;51.142;14.924;2023-02-23T00:22:41;98995.19;;;4.98;84.24
63500;BME280;49654;51.142;14.924;2023-02-23T00:25:09;98980.53;;;4.98;83.57
63500;BME280;49654;51.142;14.924;2023-02-23T00:27:37;98992.19;;;5.02;83.45
63500;BME280;49654;51.142;14.924;2023-02-23T00:30:12;98979.25;;;4.85;82.73
63500;BME280;49654;51.142;14.924;2023-02-23T00:32:39;98990.47;;;4.93;83.17
63500;BME280;49654;51.142;14.924;2023-02-23T00:35:07;98990.59;;;4.92;82.91
63500;BME280;49654;51.142;14.924;2023-02-23T00:37:42;98984.50;;;4.93;83.00
63500;BME280;49654;51.142;14.924;2023-02-23T00:40:11;98979.00;;;4.78;83.19
63500;BME280;49654;51.142;14.924;2023-02-23T00:42:39;98994.81;;;4.93;82.61
63500;BME280;49654;51.142;14.924;2023-02-23T00:45:07;98981.97;;;4.83;82.62
63500;BME280;49654;51.142;14.924;2023-02-23T00:47:39;98986.03;;;4.86;82.84
63500;BME280;49654;51.142;14.924;2023-02-23T00:50:08;98988.31;;;4.89;82.18
63500;BME280;49654;51.142;14.924;2023-02-23T00:52:38;98987.63;;;4.87;81.58
63500;BME280;49654;51.142;14.924;2023-02-23T00:55:07;98988.59;;;4.86;81.79
63500;BME280;49654;51.142;14.924;2023-02-23T00:57:34;98995.78;;;4.82;81.10
63500;BME280;49654;51.142;14.924;2023-02-23T01:00:02;98982.59;;;4.67;81.12
63500;BME280;49654;51.142;14.924;2023-02-23T01:02:39;98995.28;;;4.69;81.60
63500;BME280;49654;51.142;14.924;2023-02-23T01:05:08;98995.19;;;4.61;82.04
63500;BME280;49654;51.142;14.924;2023-02-23T01:07:36;98990.72;;;4.53;82.32
63500;BME280;49654;51.142;14.924;2023-02-23T01:10:04;98999.13;;;4.55;82.58
63500;BME280;49654;51.142;14.924;2023-02-23T01:12:47;98991.31;;;4.47;82.25
63500;BME280;49654;51.142;14.924;2023-02-23T01:15:15;98989.44;;;4.39;81.85
63500;BME280;49654;51.142;14.924;2023-02-23T01:17:44;98962.78;;;4.31;81.84
63500;BME280;49654;51.142;14.924;2023-02-23T01:20:12;98989.56;;;4.38;81.95
63500;BME280;49654;51.142;14.924;2023-02-23T01:22:44;98951.88;;;4.09;82.16
63500;BME280;49654;51.142;14.924;2023-02-23T01:25:12;98983.31;;;4.50;80.84
63500;BME280;49654;51.142;14.924;2023-02-23T01:27:40;98996.28;;;4.48;81.58
63500;BME280;49654;51.142;14.924;2023-02-23T01:30:09;99001.19;;;4.42;81.59
63500;BME280;49654;51.142;14.924;2023-02-23T01:32:37;98904.22;;;3.78;82.14
63500;BME280;49654;51.142;14.924;2023-02-23T01:35:08;98991.41;;;4.55;81.75
63500;BME280;49654;51.142;14.924;2023-02-23T01:37:36;98998.03;;;4.67;80.21
63500;BME280;49654;51.142;14.924;2023-02-23T01:40:06;98987.63;;;4.59;79.91
63500;BME280;49654;51.142;14.924;2023-02-23T01:42:39;98991.00;;;4.60;80.99
63500;BME280;49654;51.142;14.924;2023-02-23T01:45:27;98973.31;;;4.47;80.08
63500;BME280;49654;51.142;14.924;2023-02-23T01:47:56;98983.72;;;4.55;80.95
63500;BME280;49654;51.142;14.924;2023-02-23T01:50:30;98998.63;;;4.42;80.86
63500;BME280;49654;51.142;14.924;2023-02-23T01:52:59;98979.97;;;4.30;81.93
63500;BME280;49654;51.142;14.924;2023-02-23T01:55:27;98976.03;;;4.36;81.66
63500;BME280;49654;51.142;14.924;2023-02-23T01:57:59;98981.56;;;4.50;81.16
63500;BME280;49654;51.142;14.924;2023-02-23T02:00:28;98978.94;;;4.60;81.43
63500;BME280;49654;51.142;14.924;2023-02-23T02:03:03;98979.22;;;4.57;81.08
63500;BME280;49654;51.142;14.924;2023-02-23T02:05:36;98973.69;;;4.52;81.61
63500;BME280;49654;51.142;14.924;2023-02-23T02:08:06;98931.28;;;4.29;81.92
63500;BME280;49654;51.142;14.924;2023-02-23T02:10:36;98969.66;;;4.40;81.71
63500;BME280;49654;51.142;14.924;2023-02-23T02:13:14;98955.34;;;4.27;82.25
63500;BME280;49654;51.142;14.924;2023-02-23T02:15:59;98965.91;;;4.34;82.86
63500;BME280;49654;51.142;14.924;2023-02-23T02:18:34;98964.41;;;4.41;82.32
63500;BME280;49654;51.142;14.924;2023-02-23T02:21:27;98962.75;;;4.50;82.00
63500;BME280;49654;51.142;14.924;2023-02-23T02:24:25;98958.84;;;4.46;81.84
63500;BME280;49654;51.142;14.924;2023-02-23T02:27:19;98954.13;;;4.41;82.24
63500;BME280;49654;51.142;14.924;2023-02-23T02:30:07;98947.69;;;4.55;81.97
63500;BME280;49654;51.142;14.924;2023-02-23T02:33:02;98949.44;;;4.64;82.70
63500;BME280;49654;51.142;14.924;2023-02-23T02:36:14;98919.41;;;4.55;82.69
63500;BME280;49654;51.142;14.924;2023-02-23T02:38:52;98905.28;;;4.69;83.24
63500;BME280;49654;51.142;14.924;2023-02-23T02:41:30;98904.56;;;4.76;82.74
63500;BME280;49654;51.142;14.924;2023-02-23T02:44:07;98944.00;;;4.95;83.50
63500;BME280;49654;51.142;14.924;2023-02-23T02:46:39;98939.22;;;5.00;83.08
63500;BME280;49654;51.142;14.924;2023-02-23T02:49:12;98933.41;;;4.98;83.00
63500;BME280;49654;51.142;14.924;2023-02-23T02:51:45;98937.69;;;5.07;83.23
63500;BME280;49654;51.142;14.924;2023-02-23T02:54:22;98909.81;;;4.85;82.91
63500;BME280;49654;51.142;14.924;2023-02-23T02:56:52;98931.28;;;4.93;83.56
63500;BME280;49654;51.142;14.924;2023-02-23T02:59:23;98921.56;;;4.87;83.49
63500;BME280;49654;51.142;14.924;2023-02-23T03:02:13;98934.84;;;4.83;83.80
63500;BME280;49654;51.142;14.924;2023-02-23T03:04:59;98927.50;;;4.88;84.42
63500;BME280;49654;51.142;14.924;2023-02-23T03:07:51;98855.69;;;4.49;84.29
63500;BME280;49654;51.142;14.924;2023-02-23T03:10:46;98881.31;;;4.68;84.01
63500;BME280;49654;51.142;14.924;2023-02-23T03:13:42;98928.03;;;4.91;84.13
63500;BME280;49654;51.142;14.924;2023-02-23T03:16:38;98919.31;;;5.02;84.12
63500;BME280;49654;51.142;14.924;2023-02-23T03:19:28;98918.41;;;4.93;83.78
63500;BME280;49654;51.142;14.924;2023-02-23T03:22:17;98926.66;;;4.97;84.00
63500;BME280;49654;51.142;14.924;2023-02-23T03:25:08;98922.06;;;4.91;83.83
63500;BME280;49654;51.142;14.924;2023-02-23T03:28:02;98928.19;;;4.90;83.31
63500;BME280;49654;51.142;14.924;2023-02-23T03:30:55;98903.56;;;4.60;83.39
63500;BME280;49654;51.142;14.924;2023-02-23T03:33:46;98896.50;;;4.62;83.40
63500;BME280;49654;51.142;14.924;2023-02-23T03:36:36;98920.66;;;4.78;83.56
63500;BME280;49654;51.142;14.924;2023-02-23T03:39:25;98927.84;;;4.75;82.90
63500;BME280;49654;51.142;14.924;2023-02-23T03:42:18;98922.66;;;4.85;83.78
63500;BME280;49654;51.142;14.924;2023-02-23T03:45:09;98922.34;;;4.88;84.03
63500;BME280;49654;51.142;14.924;2023-02-23T03:47:57;98926.94;;;4.94;83.68
63500;BME280;49654;51.142;14.924;2023-02-23T03:50:47;98911.78;;;4.91;82.82
63500;BME280;49654;51.142;14.924;2023-02-23T03:53:40;98911.25;;;4.87;82.57
63500;BME280;49654;51.142;14.924;2023-02-23T03:56:27;98915.69;;;4.95;82.48
63500;BME280;49654;51.142;14.924;2023-02-23T03:59:19;98898.53;;;4.86;82.76
63500;BME280;49654;51.142;14.924;2023-02-23T04:02:09;98905.75;;;4.82;82.77
63500;BME280;49654;51.142;14.924;2023-02-23T04:04:56;98898.28;;;4.89;82.61
63500;BME280;49654;51.142;14.924;2023-02-23T04:07:44;98870.56;;;4.55;82.30
63500;BME280;49654;51.142;14.924;2023-02-23T04:10:32;98915.22;;;4.82;83.36
63500;BME280;49654;51.142;14.924;2023-02-23T04:13:20;98889.41;;;4.73;83.17
63500;BME280;49654;51.142;14.924;2023-02-23T04:15:52;98900.44;;;4.84;82.48
63500;BME280;49654;51.142;14.924;2023-02-23T04:18:23;98910.16;;;4.90;82.54
63500;BME280;49654;51.142;14.924;2023-02-23T04:20:51;98910.34;;;4.78;82.81
63500;BME280;49654;51.142;14.924;2023-02-23T04:23:18;98904.19;;;4.71;83.09
63500;BME280;49654;51.142;14.924;2023-02-23T04:25:47;98907.41;;;4.73;82.97
63500;BME280;49654;51.142;14.924;2023-02-23T04:28:14;98902.75;;;4.59;83.35
63500;BME280;49654;51.142;14.924;2023-02-23T04:30:41;98899.03;;;4.71;83.37
63500;BME280;49654;51.142;14.924;2023-02-23T04:33:08;98891.69;;;4.76;83.52
63500;BME280;49654;51.142;14.924;2023-02-23T04:35:37;98854.63;;;4.69;83.22
63500;BME280;49654;51.142;14.924;2023-02-23T04:38:04;98886.31;;;4.97;83.41
63500;BME280;49654;51.142;14.924;2023-02-23T04:40:31;98873.44;;;4.97;82.79
63500;BME280;49654;51.142;14.924;2023-02-23T04:42:58;98889.53;;;4.99;83.04
63500;BME280;49654;51.142;14.924;2023-02-23T04:45:26;98862.09;;;4.90;83.24
63500;BME280;49654;51.142;14.924;2023-02-23T04:47:53;98882.25;;;5.13;83.17
63500;BME280;49654;51.142;14.924;2023-02-23T04:50:20;98875.66;;;5.10;83.49
63500;BME280;49654;51.142;14.924;2023-02-23T04:52:48;98889.69;;;5.16;83.31
63500;BME280;49654;51.142;14.924;2023-02-23T04:55:20;98886.50;;;5.22;84.02
63500;BME280;49654;51.142;14.924;2023-02-23T04:57:47;98889.53;;;5.17;83.45
63500;BME280;49654;51.142;14.924;2023-02-23T05:00:15;98880.19;;;4.98;83.55
63500;BME280;49654;51.142;14.924;2023-02-23T05:02:43;98870.78;;;5.07;84.41
63500;BME280;49654;51.142;14.924;2023-02-23T05:05:10;98868.41;;;5.14;85.14
63500;BME280;49654;51.142;14.924;2023-02-23T05:07:37;98842.91;;;5.20;85.04
63500;BME280;49654;51.142;14.924;2023-02-23T05:10:06;98839.81;;;5.35;86.31
63500;BME280;49654;51.142;14.924;2023-02-23T05:12:34;98874.81;;;5.89;86.73
63500;BME280;49654;51.142;14.924;2023-02-23T05:15:01;98827.81;;;5.69;86.03
63500;BME280;49654;51.142;14.924;2023-02-23T05:17:27;98869.00;;;6.05;86.52
63500;BME280;49654;51.142;14.924;2023-02-23T05:19:54;98886.72;;;6.34;86.68
63500;BME280;49654;51.142;14.924;2023-02-23T05:22:22;98860.41;;;6.31;86.28
63500;BME280;49654;51.142;14.924;2023-02-23T05:24:48;98877.28;;;6.51;85.75
63500;BME280;49654;51.142;14.924;2023-02-23T05:27:17;98870.97;;;6.53;85.07
63500;BME280;49654;51.142;14.924;2023-02-23T05:29:44;98849.84;;;6.50;85.01
63500;BME280;49654;51.142;14.924;2023-02-23T05:32:11;98857.66;;;6.74;83.70
63500;BME280;49654;51.142;14.924;2023-02-23T05:34:37;98866.41;;;6.82;83.08
63500;BME280;49654;51.142;14.924;2023-02-23T05:37:05;98868.66;;;6.85;83.48
63500;BME280;49654;51.142;14.924;2023-02-23T05:39:32;98875.94;;;6.81;83.04
63500;BME280;49654;51.142;14.924;2023-02-23T05:41:59;98878.84;;;6.86;83.32
63500;BME280;49654;51.142;14.924;2023-02-23T05:44:27;98875.91;;;6.89;83.01
63500;BME280;49654;51.142;14.924;2023-02-23T05:46:54;98873.84;;;7.01;82.75
63500;BME280;49654;51.142;14.924;2023-02-23T05:49:21;98866.13;;;7.01;82.08
63500;BME280;49654;51.142;14.924;2023-02-23T05:51:48;98871.47;;;7.08;81.79
63500;BME280;49654;51.142;14.924;2023-02-23T05:54:16;98860.94;;;6.93;82.04
63500;BME280;49654;51.142;14.924;2023-02-23T05:56:43;98879.06;;;7.17;81.27
63500;BME280;49654;51.142;14.924;2023-02-23T05:59:10;98860.34;;;7.07;81.03
63500;BME280;49654;51.142;14.924;2023-02-23T06:01:39;98855.47;;;7.04;80.47
63500;BME280;49654;51.142;14.924;2023-02-23T06:04:06;98873.72;;;7.27;80.25
63500;BME280;49654;51.142;14.924;2023-02-23T06:06:33;98874.06;;;7.24;79.98
63500;BME280;49654;51.142;14.924;2023-02-23T06:09:00;98885.69;;;7.28;79.86
63500;BME280;49654;51.142;14.924;2023-02-23T06:11:28;98878.59;;;7.30;79.53
63500;BME280;49654;51.142;14.924;2023-02-23T06:13:56;98873.09;;;7.33;79.45
63500;BME280;49654;51.142;14.924;2023-02-23T06:16:24;98845.78;;;7.14;79.24
63500;BME280;49654;51.142;14.924;2023-02-23T06:18:52;98874.88;;;7.41;79.23
63500;BME280;49654;51.142;14.924;2023-02-23T06:21:19;98886.97;;;7.48;78.98
63500;BME280;49654;51.142;14.924;2023-02-23T06:23:46;98886.84;;;7.50;78.47
63500;BME280;49654;51.142;14.924;2023-02-23T06:26:13;98888.13;;;7.54;78.50
63500;BME280;49654;51.142;14.924;2023-02-23T06:28:40;98886.19;;;7.64;77.76
63500;BME280;49654;51.142;14.924;2023-02-23T06:31:07;98883.09;;;7.61;78.03
63500;BME280;49654;51.142;14.924;2023-02-23T06:33:33;98886.84;;;7.58;78.15
63500;BME280;49654;51.142;14.924;2023-02-23T06:36:02;98874.88;;;7.57;77.89
63500;BME280;49654;51.142;14.924;2023-02-23T06:38:29;98871.66;;;7.55;77.60
63500;BME280;49654;51.142;14.924;2023-02-23T06:40:56;98892.78;;;7.83;77.38
63500;BME280;49654;51.142;14.924;2023-02-23T06:43:23;98895.53;;;7.73;77.50
63500;BME280;49654;51.142;14.924;2023-02-23T06:45:50;98903.78;;;7.85;77.34
63500;BME280;49654;51.142;14.924;2023-02-23T06:48:17;98895.38;;;7.75;76.80
63500;BME280;49654;51.142;14.924;2023-02-23T06:50:44;98912.00;;;7.97;76.55
63500;BME280;49654;51.142;14.924;2023-02-23T06:53:12;98909.06;;;8.08;76.10
63500;BME280;49654;51.142;14.924;2023-02-23T06:55:39;98916.50;;;8.11;75.84
63500;BME280;49654;51.142;14.924;2023-02-23T06:58:05;98911.66;;;8.08;75.95
63500;BME280;49654;51.142;14.924;2023-02-23T07:00:32;98907.44;;;8.23;75.59
63500;BME280;49654;51.142;14.924;2023-02-23T07:02:59;98908.06;;;8.25;75.06
63500;BME280;49654;51.142;14.924;2023-02-23T07:05:26;98910.97;;;8.31;74.76
63500;BME280;49654;51.142;14.924;2023-02-23T07:07:54;98923.72;;;8.48;74.53
63500;BME280;49654;51.142;14.924;2023-02-23T07:10:22;98922.72;;;8.58;73.86
63500;BME280;49654;51.142;14.924;2023-02-23T07:12:49;98919.31;;;8.65;73.08
63500;BME280;49654;51.142;14.924;2023-02-23T07:15:16;98923.81;;;8.71;72.92
63500;BME280;49654;51.142;14.924;2023-02-23T07:17:45;98898.25;;;8.68;72.17
63500;BME280;49654;51.142;14.924;2023-02-23T07:20:14;98928.22;;;8.94;71.77
63500;BME280;49654;51.142;14.924;2023-02-23T07:22:41;98915.41;;;9.00;71.66
63500;BME280;49654;51.142;14.924;2023-02-23T07:25:08;98926.03;;;9.14;71.26
63500;BME280;49654;51.142;14.924;2023-02-23T07:27:37;98913.75;;;9.08;70.77
63500;BME280;49654;51.142;14.924;2023-02-23T07:30:05;98916.09;;;9.25;70.81
63500;BME280;49654;51.142;14.924;2023-02-23T07:32:32;98906.44;;;9.11;70.72
63500;BME280;49654;51.142;14.924;2023-02-23T07:34:59;98875.44;;;8.95;70.66
63500;BME280;49654;51.142;14.924;2023-02-23T07:37:26;98868.56;;;9.10;70.32
63500;BME280;49654;51.142;14.924;2023-02-23T07:39:53;98900.88;;;9.22;70.69
63500;BME280;49654;51.142;14.924;2023-02-23T07:42:20;98902.44;;;9.32;70.66
63500;BME280;49654;51.142;14.924;2023-02-23T07:44:48;98895.97;;;9.27;70.67
63500;BME280;49654;51.142;14.924;2023-02-23T07:47:15;98877.75;;;9.21;70.82
63500;BME280;49654;51.142;14.924;2023-02-23T07:49:42;98898.91;;;9.24;70.63
63500;BME280;49654;51.142;14.924;2023-02-23T07:52:08;98887.81;;;9.39;70.84
63500;BME280;49654;51.142;14.924;2023-02-23T07:54:35;98886.72;;;9.56;69.88
63500;BME280;49654;51.142;14.924;2023-02-23T07:57:02;98896.22;;;9.78;69.64
63500;BME280;49654;51.142;14.924;2023-02-23T07:59:29;98854.75;;;9.41;69.68
63500;BME280;49654;51.142;14.924;2023-02-23T08:01:58;98900.88;;;9.68;69.24
63500;BME280;49654;51.142;14.924;2023-02-23T08:04:25;98892.03;;;9.77;69.49
63500;BME280;49654;51.142;14.924;2023-02-23T08:06:52;98889.47;;;9.92;69.07
63500;BME280;49654;51.142;14.924;2023-02-23T08:09:20;98887.53;;;9.71;68.50
63500;BME280;49654;51.142;14.924;2023-02-23T08:11:47;98898.56;;;9.88;69.25
63500;BME280;49654;51.142;14.924;2023-02-23T08:14:14;98905.28;;;9.97;68.82
63500;BME280;49654;51.142;14.924;2023-02-23T08:16:41;98903.25;;;10.08;68.34
63500;BME280;49654;51.142;14.924;2023-02-23T08:19:12;98856.53;;;9.93;67.47
63500;BME280;49654;51.142;14.924;2023-02-23T08:21:42;98912.97;;;10.28;67.02
63500;BME280;49654;51.142;14.924;2023-02-23T08:24:12;98737.47;;;9.24;67.17
63500;BME280;49654;51.142;14.924;2023-02-23T08:26:51;98807.25;;;9.93;66.21
63500;BME280;49654;51.142;14.924;2023-02-23T08:29:21;98901.16;;;10.41;66.00
63500;BME280;49654;51.142;14.924;2023-02-23T08:31:59;98914.47;;;10.52;66.10
63500;BME280;49654;51.142;14.924;2023-02-23T08:34:39;98760.56;;;9.63;64.62
63500;BME280;49654;51.142;14.924;2023-02-23T08:37:06;98878.38;;;10.58;64.87
63500;BME280;49654;51.142;14.924;2023-02-23T08:39:33;98890.91;;;10.84;64.91
63500;BME280;49654;51.142;14.924;2023-02-23T08:42:00;98887.34;;;10.70;64.65
63500;BME280;49654;51.142;14.924;2023-02-23T08:44:27;98860.94;;;10.66;63.87
63500;BME280;49654;51.142;14.924;2023-02-23T08:46:55;98889.59;;;11.31;62.56
63500;BME280;49654;51.142;14.924;2023-02-23T08:49:23;98897.53;;;11.44;61.44
63500;BME280;49654;51.142;14.924;2023-02-23T08:51:51;98888.88;;;11.43;61.56
63500;BME280;49654;51.142;14.924;2023-02-23T08:54:18;98855.41;;;11.55;60.85
63500;BME280;49654;51.142;14.924;2023-02-23T08:56:45;98888.47;;;11.83;60.30
63500;BME280;49654;51.142;14.924;2023-02-23T08:59:13;98899.78;;;11.96;59.79
63500;BME280;49654;51.142;14.924;2023-02-23T09:01:40;98879.69;;;11.90;59.77
63500;BME280;49654;51.142;14.924;2023-02-23T09:04:07;98870.50;;;11.88;60.27
63500;BME280;49654;51.142;14.924;2023-02-23T09:06:35;98890.16;;;12.32;58.94
63500;BME280;49654;51.142;14.924;2023-02-23T09:09:03;98802.16;;;11.79;59.10
63500;BME280;49654;51.142;14.924;2023-02-23T09:11:31;98888.00;;;12.42;58.47
63500;BME280;49654;51.142;14.924;2023-02-23T09:13:58;98823.06;;;11.64;58.53
63500;BME280;49654;51.142;14.924;2023-02-23T09:16:25;98887.81;;;11.81;59.70
63500;BME280;49654;51.142;14.924;2023-02-23T09:18:52;98872.41;;;12.07;59.90
63500;BME280;49654;51.142;14.924;2023-02-23T09:21:19;98853.59;;;12.12;60.11
63500;BME280;49654;51.142;14.924;2023-02-23T09:23:50;98892.41;;;12.07;60.21
63500;BME280;49654;51.142;14.924;2023-02-23T09:26:22;98870.19;;;12.04;59.95
63500;BME280;49654;51.142;14.924;2023-02-23T09:28:51;98844.50;;;11.66;59.86
63500;BME280;49654;51.142;14.924;2023-02-23T09:31:19;98866.66;;;11.84;60.79
63500;BME280;49654;51.142;14.924;2023-02-23T09:33:47;98853.44;;;11.85;60.11
63500;BME280;49654;51.142;14.924;2023-02-23T09:36:16;98878.06;;;11.83;60.36
63500;BME280;49654;51.142;14.924;2023-02-23T09:38:45;98805.00;;;11.56;60.03
63500;BME280;49654;51.142;14.924;2023-02-23T09:44:24;98873.16;;;12.01;59.45
63500;BME280;49654;51.142;14.924;2023-02-23T09:47:01;98889.81;;;12.07;59.92
63500;BME280;49654;51.142;14.924;2023-02-23T09:49:34;98888.41;;;12.04;59.65
63500;BME280;49654;51.142;14.924;2023-02-23T09:52:03;98883.50;;;11.66;59.96
63500;BME280;49654;51.142;14.924;2023-02-23T09:54:33;98899.47;;;11.85;60.03
63500;BME280;49654;51.142;14.924;2023-02-23T09:57:03;98879.75;;;11.97;59.69
63500;BME280;49654;51.142;14.924;2023-02-23T09:59:33;98851.69;;;11.92;59.64
63500;BME280;49654;51.142;14.924;2023-02-23T10:02:04;98854.59;;;12.11;59.88
63500;BME280;49654;51.142;14.924;2023-02-23T10:04:40;98903.25;;;12.45;59.04
63500;BME280;49654;51.142;14.924;2023-02-23T10:07:13;98901.34;;;12.60;58.69
63500;BME280;49654;51.142;14.924;2023-02-23T10:09:57;98898.09;;;12.58;59.01
63500;BME280;49654;51.142;14.924;2023-02-23T10:12:31;98897.09;;;12.52;59.10
63500;BME280;49654;51.142;14.924;2023-02-23T10:15:17;98848.84;;;12.63;59.36
63500;BME280;49654;51.142;14.924;2023-02-23T10:17:54;98893.19;;;12.76;58.04
63500;BME280;49654;51.142;14.924;2023-02-23T10:20:31;98886.97;;;12.84;58.45
63500;BME280;49654;51.142;14.924;2023-02-23T10:23:03;98887.88;;;13.11;59.13
63500;BME280;49654;51.142;14.924;2023-02-23T10:25:35;98909.94;;;13.22;58.11
63500;BME280;49654;51.142;14.924;2023-02-23T10:28:03;98913.22;;;13.24;57.60
63500;BME280;49654;51.142;14.924;2023-02-23T10:30:33;98881.47;;;13.20;57.61
63500;BME280;49654;51.142;14.924;2023-02-23T10:33:04;98884.84;;;13.14;57.87
63500;BME280;49654;51.142;14.924;2023-02-23T10:35:36;98899.06;;;13.05;58.29
63500;BME280;49654;51.142;14.924;2023-02-23T10:38:05;98894.50;;;13.07;58.76
63500;BME280;49654;51.142;14.924;2023-02-23T10:40:32;98903.59;;;13.24;58.27
63500;BME280;49654;51.142;14.924;2023-02-23T10:43:00;98875.03;;;13.10;58.25
63500;BME280;49654;51.142;14.924;2023-02-23T10:45:29;98907.03;;;13.58;58.38
63500;BME280;49654;51.142;14.924;2023-02-23T10:48:04;98831.72;;;13.09;56.73
63500;BME280;49654;51.142;14.924;2023-02-23T10:50:35;98890.16;;;13.27;57.37
63500;BME280;49654;51.142;14.924;2023-02-23T10:53:10;98899.72;;;13.20;58.39
63500;BME280;49654;51.142;14.924;2023-02-23T10:55:42;98880.13;;;13.44;56.84
63500;BME280;49654;51.142;14.924;2023-02-23T10:58:11;98871.28;;;13.39;56.79
63500;BME280;49654;51.142;14.924;2023-02-23T11:00:53;98894.19;;;13.90;56.24
63500;BME280;49654;51.142;14.924;2023-02-23T11:03:31;98892.78;;;13.67;56.46
63500;BME280;49654;51.142;14.924;2023-02-23T11:05:58;98874.09;;;13.97;56.21
63500;BME280;49654;51.142;14.924;2023-02-23T11:08:27;98860.47;;;13.55;55.74
63500;BME280;49654;51.142;14.924;2023-02-23T11:10:59;98886.91;;;14.12;55.59
63500;BME280;49654;51.142;14.924;2023-02-23T11:13:28;98876.88;;;14.15;54.40
63500;BME280;49654;51.142;14.924;2023-02-23T11:16:01;98881.06;;;14.23;54.99
63500;BME280;49654;51.142;14.924;2023-02-23T11:18:30;98872.16;;;14.57;54.25
63500;BME280;49654;51.142;14.924;2023-02-23T11:20:57;98868.47;;;14.78;54.29
63500;BME280;49654;51.142;14.924;2023-02-23T11:23:26;98869.78;;;14.29;54.84
63500;BME280;49654;51.142;14.924;2023-02-23T11:25:56;98867.94;;;14.56;54.82
63500;BME280;49654;51.142;14.924;2023-02-23T11:28:28;98851.97;;;14.77;55.01
63500;BME280;49654;51.142;14.924;2023-02-23T11:30:59;98862.59;;;15.14;53.43
63500;BME280;49654;51.142;14.924;2023-02-23T11:33:31;98829.03;;;14.73;54.18
63500;BME280;49654;51.142;14.924;2023-02-23T11:36:14;98830.03;;;14.78;53.09
63500;BME280;49654;51.142;14.924;2023-02-23T11:38:43;98830.38;;;15.20;53.07
63500;BME280;49654;51.142;14.924;2023-02-23T11:41:19;98836.69;;;15.06;52.17
63500;BME280;49654;51.142;14.924;2023-02-23T11:43:48;98823.22;;;14.77;52.34
63500;BME280;49654;51.142;14.924;2023-02-23T11:46:17;98775.88;;;13.96;53.36
63500;BME280;49654;51.142;14.924;2023-02-23T11:48:50;98853.94;;;14.31;54.17
63500;BME280;49654;51.142;14.924;2023-02-23T11:51:23;98815.09;;;14.47;52.61
63500;BME280;49654;51.142;14.924;2023-02-23T11:53:51;98813.69;;;14.51;52.15
63500;BME280;49654;51.142;14.924;2023-02-23T11:56:20;98832.22;;;14.82;52.79
63500;BME280;49654;51.142;14.924;2023-02-23T11:58:50;98801.28;;;14.78;52.03
63500;BME280;49654;51.142;14.924;2023-02-23T12:01:21;98787.53;;;14.90;51.04
63500;BME280;49654;51.142;14.924;2023-02-23T12:03:52;98792.34;;;14.61;51.24
63500;BME280;49654;51.142;14.924;2023-02-23T12:06:27;98827.13;;;14.55;51.46
63500;BME280;49654;51.142;14.924;2023-02-23T12:09:00;98821.09;;;14.55;51.89
63500;BME280;49654;51.142;14.924;2023-02-23T12:11:32;98810.72;;;15.11;51.13
63500;BME280;49654;51.142;14.924;2023-02-23T12:14:07;98803.47;;;15.13;51.33
63500;BME280;49654;51.142;14.924;2023-02-23T12:16:40;98820.09;;;14.94;51.83
63500;BME280;49654;51.142;14.924;2023-02-23T12:19:21;98822.47;;;14.64;51.66
63500;BME280;49654;51.142;14.924;2023-02-23T12:21:54;98800.63;;;14.45;52.58
63500;BME280;49654;51.142;14.924;2023-02-23T12:24:35;98809.78;;;14.67;52.64
63500;BME280;49654;51.142;14.924;2023-02-23T12:27:09;98838.38;;;14.62;52.45
63500;BME280;49654;51.142;14.924;2023-02-23T12:29:43;98822.34;;;14.52;52.20
63500;BME280;49654;51.142;14.924;2023-02-23T12:32:18;98732.81;;;14.25;51.91
63500;BME280;49654;51.142;14.924;2023-02-23T12:34:50;98788.75;;;15.19;51.90
63500;BME280;49654;51.142;14.924;2023-02-23T12:37:30;98803.44;;;15.88;50.90
63500;BME280;49654;51.142;14.924;2023-02-23T12:40:10;98815.38;;;15.59;49.62
63500;BME280;49654;51.142;14.924;2023-02-23T12:42:43;98810.19;;;15.77;50.35
63500;BME280;49654;51.142;14.924;2023-02-23T12:45:16;98804.84;;;16.27;49.02
63500;BME280;49654;51.142;14.924;2023-02-23T12:47:51;98799.97;;;16.13;48.62
63500;BME280;49654;51.142;14.924;2023-02-23T12:50:25;98803.00;;;15.91;48.38
63500;BME280;49654;51.142;14.924;2023-02-23T12:52:55;98798.78;;;16.57;48.43
63500;BME280;49654;51.142;14.924;2023-02-23T12:55:32;98806.34;;;16.84;46.37
63500;BME280;49654;51.142;14.924;2023-02-23T12:58:07;98794.66;;;16.19;47.38
63500;BME280;49654;51.142;14.924;2023-02-23T13:00:48;98782.19;;;15.96;48.32
63500;BME280;49654;51.142;14.924;2023-02-23T13:03:37;98789.63;;;16.18;48.20
63500;BME280;49654;51.142;14.924;2023-02-23T13:06:16;98739.03;;;15.62;48.74
63500;BME280;49654;51.142;14.924;2023-02-23T13:08:55;98787.81;;;16.00;49.45
63500;BME280;49654;51.142;14.924;2023-02-23T13:11:37;98780.47;;;15.90;48.63
63500;BME280;49654;51.142;14.924;2023-02-23T13:14:11;98783.44;;;16.79;47.46
63500;BME280;49654;51.142;14.924;2023-02-23T13:16:43;98777.53;;;17.07;46.33
63500;BME280;49654;51.142;14.924;2023-02-23T13:19:16;98770.91;;;16.93;47.72
63500;BME280;49654;51.142;14.924;2023-02-23T13:21:51;98770.88;;;17.35;46.78
63500;BME280;49654;51.142;14.924;2023-02-23T13:24:23;98782.25;;;17.40;46.26
63500;BME280;49654;51.142;14.924;2023-02-23T13:26:54;98779.28;;;17.13;45.65